createdAt,value
2022-10-07T00:02:34.591Z,11.59
2022-10-07T00:07:36.484Z,11.48
2022-10-07T00:12:38.430Z,11.43
2022-10-07T00:17:40.279Z,11.42
2022-10-07T00:22:42.064Z,11.41
2022-10-07T00:27:44.036Z,11.39
2022-10-07T00:32:46.101Z,11.36
2022-10-07T00:37:48.087Z,11.35
2022-10-07T00:42:49.899Z,11.31
2022-10-07T00:47:52.075Z,11.29
2022-10-07T00:52:57.909Z,11.23
2022-10-07T00:58:03.150Z,11.17
2022-10-07T01:03:05.393Z,11.14
2022-10-07T01:08:07.921Z,11.12
2022-10-07T01:13:35.081Z,11.12
2022-10-07T01:18:53.944Z,11.08
2022-10-07T01:24:03.132Z,11.06
2022-10-07T01:29:29.761Z,11.02
2022-10-07T01:34:34.361Z,11.00
2022-10-07T01:39:43.026Z,10.98
2022-10-07T01:44:47.646Z,10.94
2022-10-07T01:49:49.548Z,10.90
2022-10-07T01:55:11.317Z,10.86
2022-10-07T02:00:14.749Z,10.83
2022-10-07T02:05:39.094Z,10.82
2022-10-07T02:10:43.057Z,10.79
2022-10-07T02:16:00.760Z,10.77
2022-10-07T02:21:06.920Z,10.74
2022-10-07T02:26:13.475Z,10.76
2022-10-07T02:31:18.286Z,10.73
2022-10-07T02:36:29.064Z,10.70
2022-10-07T02:41:41.938Z,10.68
2022-10-07T02:47:01.011Z,10.66
2022-10-07T02:52:18.495Z,10.64
2022-10-07T02:57:24.806Z,10.63
2022-10-07T03:02:38.047Z,10.63
2022-10-07T03:07:42.017Z,10.61
2022-10-07T03:12:45.601Z,10.61
2022-10-07T03:17:48.421Z,10.61
2022-10-07T03:22:51.008Z,10.59
2022-10-07T03:27:54.445Z,10.59
2022-10-07T03:32:57.431Z,10.56
2022-10-07T03:37:59.357Z,10.55
2022-10-07T03:43:02.562Z,10.53
2022-10-07T03:48:04.679Z,10.50
2022-10-07T03:53:08.166Z,10.50
2022-10-07T03:58:10.394Z,10.48
2022-10-07T04:03:14.593Z,10.47
2022-10-07T04:08:18.072Z,10.45
2022-10-07T04:13:20.203Z,10.44
2022-10-07T04:18:22.582Z,10.45
2022-10-07T04:23:27.523Z,10.48
2022-10-07T04:28:30.299Z,10.49
2022-10-07T04:33:42.286Z,10.47
2022-10-07T04:38:53.103Z,10.48
2022-10-07T04:44:00.936Z,10.46
2022-10-07T04:49:07.473Z,10.42
2022-10-07T04:54:09.574Z,10.37
2022-10-07T04:59:23.593Z,10.34
2022-10-07T05:04:27.917Z,10.31
2022-10-07T05:09:31.446Z,10.30
2022-10-07T05:14:35.284Z,10.27
2022-10-07T05:19:37.997Z,10.28
2022-10-07T05:24:39.956Z,10.26
2022-10-07T05:29:42.012Z,10.25
2022-10-07T05:34:47.298Z,10.26
2022-10-07T05:39:49.506Z,10.27
2022-10-07T05:44:55.049Z,10.30
2022-10-07T05:49:58.942Z,10.33
2022-10-07T05:55:02.396Z,10.41
2022-10-07T06:00:06.348Z,10.48
2022-10-07T06:05:16.369Z,10.55
2022-10-07T06:10:37.520Z,10.63
2022-10-07T06:15:39.960Z,10.70
2022-10-07T06:20:42.698Z,10.79
2022-10-07T06:26:13.627Z,10.89
2022-10-07T06:31:25.405Z,11.00
2022-10-07T06:36:32.940Z,11.11
2022-10-07T06:41:35.842Z,11.21
2022-10-07T06:46:59.644Z,11.33
2022-10-07T06:52:01.641Z,11.43
2022-10-07T06:57:15.621Z,11.53
2022-10-07T07:02:30.008Z,11.66
2022-10-07T07:07:34.452Z,11.80
2022-10-07T07:12:37.015Z,11.91
2022-10-07T07:17:38.912Z,12.07
2022-10-07T07:22:41.882Z,12.22
2022-10-07T07:27:46.567Z,12.41
2022-10-07T07:32:50.123Z,12.57
2022-10-07T07:37:53.760Z,12.76
2022-10-07T07:42:56.238Z,12.93
2022-10-07T07:48:00.158Z,13.10
2022-10-07T07:53:04.532Z,13.25
2022-10-07T07:58:11.643Z,13.38
2022-10-07T08:03:15.771Z,13.50
2022-10-07T08:08:18.540Z,13.61
2022-10-07T08:13:20.882Z,13.74
2022-10-07T08:18:24.598Z,13.86
2022-10-07T08:23:27.222Z,13.98
2022-10-07T08:28:29.282Z,14.13
2022-10-07T08:33:39.670Z,14.27
2022-10-07T08:38:42.469Z,14.41
2022-10-07T08:43:50.453Z,14.51
2022-10-07T08:49:00.090Z,14.63
2022-10-07T08:54:02.729Z,14.76
2022-10-07T08:59:13.366Z,14.89
2022-10-07T09:04:36.701Z,15.01
2022-10-07T09:09:44.798Z,15.12
2022-10-07T09:14:48.988Z,15.25
2022-10-07T09:19:56.802Z,15.34
2022-10-07T09:25:17.036Z,15.48
2022-10-07T09:30:20.493Z,15.57
2022-10-07T09:35:25.801Z,15.66
2022-10-07T09:40:27.603Z,15.74
2022-10-07T09:45:33.436Z,15.88
2022-10-07T09:50:41.212Z,16.00
2022-10-07T09:55:45.303Z,16.10
2022-10-07T10:00:49.880Z,16.22
2022-10-07T10:06:01.642Z,16.33
2022-10-07T10:11:06.500Z,16.42
2022-10-07T10:16:34.460Z,16.50
2022-10-07T10:21:42.177Z,16.58
2022-10-07T10:26:46.563Z,16.62
2022-10-07T10:32:22.783Z,16.68
2022-10-07T10:37:46.302Z,16.76
2022-10-07T10:43:21.978Z,16.81
2022-10-07T10:48:29.307Z,16.87
2022-10-07T10:53:42.958Z,16.95
2022-10-07T10:59:34.789Z,17.02
2022-10-07T11:04:59.043Z,17.06
2022-10-07T11:10:18.271Z,17.02
2022-10-07T11:15:28.985Z,17.03
2022-10-07T11:20:38.832Z,17.04
2022-10-07T11:25:50.910Z,17.05
2022-10-07T11:31:05.649Z,17.09
2022-10-07T11:36:17.902Z,17.15
2022-10-07T11:41:32.401Z,17.20
2022-10-07T11:46:39.794Z,17.24
2022-10-07T11:52:43.556Z,17.25
2022-10-07T11:57:54.179Z,17.26
2022-10-07T12:03:18.903Z,17.31
2022-10-07T12:08:33.916Z,17.35
2022-10-07T12:13:38.455Z,17.35
2022-10-07T12:18:40.314Z,17.39
2022-10-07T12:23:44.204Z,17.41
2022-10-07T12:28:53.687Z,17.46
2022-10-07T12:34:09.273Z,17.52
2022-10-07T12:39:11.825Z,17.56
2022-10-07T12:44:32.119Z,17.58
2022-10-07T12:49:37.271Z,17.56
2022-10-07T12:54:47.701Z,17.56
2022-10-07T13:00:08.397Z,17.58
2022-10-07T13:05:37.574Z,17.59
2022-10-07T13:11:00.664Z,17.59
2022-10-07T13:16:14.587Z,17.60
2022-10-07T13:21:35.846Z,17.61
2022-10-07T13:26:43.655Z,17.61
2022-10-07T13:32:03.741Z,17.63
2022-10-07T13:37:29.714Z,17.64
2022-10-07T13:42:31.575Z,17.62
2022-10-07T13:47:34.022Z,17.62
2022-10-07T13:52:44.425Z,17.63
2022-10-07T13:57:46.960Z,17.60
2022-10-07T14:02:50.929Z,17.60
2022-10-07T14:08:11.350Z,17.60
2022-10-07T14:13:16.449Z,17.58
2022-10-07T14:18:18.596Z,17.59
2022-10-07T14:23:31.280Z,17.59
2022-10-07T14:28:35.709Z,17.57
2022-10-07T14:34:10.480Z,17.57
2022-10-07T14:39:32.827Z,17.57
2022-10-07T14:44:35.855Z,17.54
2022-10-07T14:49:37.827Z,17.49
2022-10-07T14:54:40.371Z,17.46
2022-10-07T14:59:42.328Z,17.46
2022-10-07T15:04:45.644Z,17.45
2022-10-07T15:09:48.568Z,17.40
2022-10-07T15:14:50.607Z,17.35
2022-10-07T15:19:53.132Z,17.29
2022-10-07T15:24:55.198Z,17.26
2022-10-07T15:29:57.099Z,17.23
2022-10-07T15:34:58.998Z,17.20
2022-10-07T15:40:01.155Z,17.17
2022-10-07T15:45:03.020Z,17.14
2022-10-07T15:50:06.029Z,17.08
2022-10-07T15:55:09.207Z,17.03
2022-10-07T16:00:11.727Z,17.00
2022-10-07T16:05:16.439Z,16.94
2022-10-07T16:10:18.261Z,16.90
2022-10-07T16:15:20.216Z,16.87
2022-10-07T16:20:22.032Z,16.81
2022-10-07T16:25:23.810Z,16.78
2022-10-07T16:30:51.648Z,16.73
2022-10-07T16:35:53.431Z,16.70
2022-10-07T16:40:55.415Z,16.67
2022-10-07T16:46:02.208Z,16.63
2022-10-07T16:51:04.407Z,16.58
2022-10-07T16:56:07.432Z,16.56
2022-10-07T17:01:12.739Z,16.53
2022-10-07T17:06:17.955Z,16.51
2022-10-07T17:11:30.425Z,16.48
2022-10-07T17:16:36.728Z,16.45
2022-10-07T17:21:40.887Z,16.44
2022-10-07T17:26:44.123Z,16.41
2022-10-07T17:31:50.292Z,16.39
2022-10-07T17:36:52.510Z,16.36
2022-10-07T17:41:54.352Z,16.35
2022-10-07T17:46:58.963Z,16.33
2022-10-07T17:52:00.880Z,16.31
2022-10-07T17:57:03.300Z,16.27
2022-10-07T18:02:05.659Z,16.22
2022-10-07T18:07:07.487Z,16.16
2022-10-07T18:12:27.748Z,16.14
2022-10-07T18:17:29.831Z,16.15
2022-10-07T18:22:34.418Z,16.12
2022-10-07T18:27:36.199Z,16.09
2022-10-07T18:32:38.060Z,16.05
2022-10-07T18:37:39.994Z,16.03
2022-10-07T18:42:42.111Z,16.01
2022-10-07T18:47:44.589Z,15.98
2022-10-07T18:52:46.934Z,15.91
2022-10-07T18:57:49.431Z,15.84
2022-10-07T19:02:51.617Z,15.75
2022-10-07T19:07:53.503Z,15.66
2022-10-07T19:13:17.218Z,15.57
2022-10-07T19:18:22.899Z,15.48
2022-10-07T19:23:28.946Z,15.41
2022-10-07T19:28:31.092Z,15.38
2022-10-07T19:33:34.281Z,15.38
2022-10-07T19:38:40.817Z,15.42
2022-10-07T19:43:43.892Z,15.46
2022-10-07T19:48:45.925Z,15.51
2022-10-07T19:53:48.064Z,15.54
2022-10-07T19:59:01.043Z,15.56
2022-10-07T20:04:04.393Z,15.54
2022-10-07T20:09:08.701Z,15.53
2022-10-07T20:14:10.933Z,15.52
2022-10-07T20:19:16.452Z,15.53
2022-10-07T20:24:18.478Z,15.52
2022-10-07T20:29:25.275Z,15.51
2022-10-07T20:34:27.709Z,15.50
2022-10-07T20:39:48.114Z,15.47
2022-10-07T20:44:52.240Z,15.44
2022-10-07T20:49:56.716Z,15.42
2022-10-07T20:54:58.840Z,15.39
2022-10-07T21:00:00.851Z,15.37
2022-10-07T21:05:02.658Z,15.35
2022-10-07T21:10:05.187Z,15.33
2022-10-07T21:15:07.573Z,15.31
2022-10-07T21:20:09.897Z,15.29
2022-10-07T21:25:11.992Z,15.28
2022-10-07T21:30:13.922Z,15.26
2022-10-07T21:35:15.652Z,15.25
2022-10-07T21:40:17.517Z,15.23
2022-10-07T21:45:19.382Z,15.23
2022-10-07T21:50:21.371Z,15.21
2022-10-07T21:55:23.532Z,15.19
2022-10-07T22:00:26.213Z,15.16
2022-10-07T22:05:27.987Z,15.11
2022-10-07T22:10:29.793Z,15.03
2022-10-07T22:15:36.866Z,14.96
2022-10-07T22:20:38.991Z,14.87
2022-10-07T22:25:40.778Z,14.80
2022-10-07T22:30:43.009Z,14.72
2022-10-07T22:35:44.854Z,14.65
2022-10-07T22:40:46.707Z,14.59
2022-10-07T22:45:57.136Z,14.54
2022-10-07T22:51:10.342Z,14.48
2022-10-07T22:56:14.958Z,14.42
2022-10-07T23:01:17.896Z,14.41
2022-10-07T23:06:19.921Z,14.37
2022-10-07T23:11:24.270Z,14.30
2022-10-07T23:16:29.691Z,14.22
2022-10-07T23:21:34.755Z,14.14
2022-10-07T23:26:37.338Z,14.10
2022-10-07T23:31:39.562Z,14.05
2022-10-07T23:36:41.608Z,14.00
2022-10-07T23:41:43.425Z,13.97
2022-10-07T23:46:45.373Z,13.92
2022-10-07T23:51:47.528Z,13.87
2022-10-07T23:56:49.561Z,13.85
